Time;durP1;ratioP1;P1;durP2;ratioP2;P2;SDS_P1;SDS_P2;PMS_P1;PMS_P2;Temp;Humidity;BMP_temperature;BMP_pressure;BME280_temperature;BME280_humidity;BME280_pressure;Samples;Min_cycle;Max_cycle;Signal;HPM_P1;HPM_P2
2021/07/17 00:01:22;;;;;;;17.05;11.35;;;21.00;99.90;;;;;;5032764;28;20380;-38
2021/07/17 00:03:47;;;;;;;15.75;11.60;;;21.00;99.90;;;;;;5031360;28;20075;-38
2021/07/17 00:06:13;;;;;;;13.15;10.90;;;21.00;99.90;;;;;;5032587;28;20033;-38
2021/07/17 00:08:38;;;;;;;14.30;10.63;;;21.00;99.90;;;;;;5032585;28;20108;-39
2021/07/17 00:11:04;;;;;;;15.95;11.32;;;21.00;99.90;;;;;;5032640;28;20069;-40
2021/07/17 00:13:30;;;;;;;18.58;11.07;;;21.00;99.90;;;;;;5032614;28;20029;-40
2021/07/17 00:15:57;;;;;;;13.40;10.00;;;21.00;99.90;;;;;;5036382;28;20057;-40
2021/07/17 00:18:23;;;;;;;16.13;11.27;;;21.00;99.90;;;;;;5035235;28;20047;-39
2021/07/17 00:20:49;;;;;;;14.13;11.23;;;21.00;99.90;;;;;;5018441;28;20028;-40
2021/07/17 00:23:16;;;;;;;14.68;11.02;;;21.00;99.90;;;;;;5036538;28;20031;-40
2021/07/17 00:25:47;;;;;;;20.75;10.60;;;21.00;99.90;;;;;;5036369;28;20468;-40
2021/07/17 00:28:13;;;;;;;15.68;10.55;;;20.90;99.90;;;;;;5036361;28;20112;-40
2021/07/17 00:30:39;;;;;;;13.05;11.45;;;20.90;99.90;;;;;;5036300;28;20083;-40
2021/07/17 00:33:04;;;;;;;16.73;11.57;;;20.80;99.90;;;;;;5034904;28;20469;-39
2021/07/17 00:35:30;;;;;;;11.13;9.82;;;20.80;99.90;;;;;;5036127;28;20033;-38
2021/07/17 00:37:55;;;;;;;18.38;11.95;;;20.70;99.90;;;;;;5035989;28;20057;-39
2021/07/17 00:40:21;;;;;;;13.77;10.75;;;20.80;99.90;;;;;;5036092;28;20030;-38
2021/07/17 00:42:48;;;;;;;18.85;13.02;;;20.70;99.90;;;;;;5036088;28;20071;-39
2021/07/17 00:45:14;;;;;;;20.95;13.25;;;20.70;99.90;;;;;;5036075;28;20022;-38
2021/07/17 00:47:40;;;;;;;12.63;11.32;;;20.70;99.90;;;;;;5034684;28;20017;-38
2021/07/17 00:50:08;;;;;;;11.20;9.98;;;20.70;99.90;;;;;;5035779;28;20036;-38
2021/07/17 00:52:35;;;;;;;15.73;11.70;;;20.60;99.90;;;;;;5035848;28;20034;-40
2021/07/17 00:55:02;;;;;;;13.55;10.93;;;20.60;99.90;;;;;;5035860;28;20115;-38
2021/07/17 00:57:31;;;;;;;15.07;12.82;;;20.60;99.90;;;;;;5035818;28;20026;-38
2021/07/17 00:59:59;;;;;;;15.85;11.10;;;20.60;99.90;;;;;;5035674;28;20029;-38
2021/07/17 01:02:25;;;;;;;16.77;12.52;;;20.50;99.90;;;;;;5034418;28;20025;-38
2021/07/17 01:04:52;;;;;;;19.60;14.85;;;20.50;99.90;;;;;;5035519;28;20472;-40
2021/07/17 01:07:18;;;;;;;12.77;11.38;;;20.50;99.90;;;;;;5035721;28;20029;-38
2021/07/17 01:09:43;;;;;;;20.48;14.85;;;20.50;99.90;;;;;;5035525;28;20075;-38
2021/07/17 01:12:09;;;;;;;20.63;15.90;;;20.50;99.90;;;;;;5035521;28;20034;-38
2021/07/17 01:14:36;;;;;;;23.60;15.05;;;20.50;99.90;;;;;;5035501;28;20057;-41
2021/07/17 01:17:02;;;;;;;21.30;15.65;;;20.50;99.90;;;;;;5035242;28;20025;-38
2021/07/17 01:19:27;;;;;;;15.60;13.13;;;20.40;99.90;;;;;;5034454;28;20025;-38
2021/07/17 01:21:53;;;;;;;21.52;14.90;;;20.50;99.90;;;;;;5035270;28;20527;-38
2021/07/17 01:24:20;;;;;;;20.67;14.80;;;20.40;99.90;;;;;;5035406;28;20052;-38
2021/07/17 01:26:46;;;;;;;21.00;15.85;;;20.40;99.90;;;;;;5035041;28;20441;-38
2021/07/17 01:29:12;;;;;;;16.33;13.13;;;20.40;99.90;;;;;;5035259;28;20052;-38
2021/07/17 01:31:37;;;;;;;19.65;16.70;;;20.40;99.90;;;;;;5035109;28;20041;-38
2021/07/17 01:34:03;;;;;;;22.83;17.15;;;20.40;99.90;;;;;;5016037;28;20334;-38
2021/07/17 01:36:29;;;;;;;26.63;17.33;;;20.40;99.90;;;;;;5034919;28;20181;-38
2021/07/17 01:38:54;;;;;;;20.70;16.25;;;20.30;99.90;;;;;;5034901;28;20068;-38
2021/07/17 01:41:20;;;;;;;25.08;18.38;;;20.30;99.90;;;;;;5035085;28;20197;-38
2021/07/17 01:43:46;;;;;;;21.50;14.35;;;20.30;99.90;;;;;;5034891;28;20033;-38
2021/07/17 01:46:11;;;;;;;27.98;19.35;;;20.30;99.90;;;;;;5034903;28;20066;-38
2021/07/17 01:48:37;;;;;;;19.05;16.20;;;20.30;99.90;;;;;;5033488;28;20385;-39
2021/07/17 01:51:03;;;;;;;24.08;18.10;;;20.30;99.90;;;;;;5034751;28;20034;-38
2021/07/17 01:53:29;;;;;;;28.15;19.45;;;20.30;99.90;;;;;;5034803;28;20037;-38
2021/07/17 01:55:54;;;;;;;20.70;16.77;;;20.30;99.90;;;;;;5034756;28;20037;-40
2021/07/17 01:58:20;;;;;;;25.08;18.38;;;20.30;99.90;;;;;;5034668;28;20028;-39
2021/07/17 02:00:46;;;;;;;19.13;16.00;;;20.40;99.90;;;;;;5034585;28;20037;-38
2021/07/17 02:03:11;;;;;;;24.55;17.38;;;20.40;99.90;;;;;;5033264;28;20025;-40
2021/07/17 02:05:37;;;;;;;18.33;15.18;;;20.40;99.90;;;;;;5034594;28;20104;-38
2021/07/17 02:08:03;;;;;;;25.52;18.70;;;20.40;99.90;;;;;;5034383;28;20025;-38
2021/07/17 02:10:32;;;;;;;20.42;15.25;;;20.40;99.90;;;;;;5034553;28;20035;-38
2021/07/17 02:13:12;;;;;;;25.75;17.45;;;20.30;99.90;;;;;;5034316;28;20144;-38
2021/07/17 02:15:43;;;;;;;25.98;17.98;;;20.30;99.90;;;;;;5016501;28;20033;-39
2021/07/17 02:18:10;;;;;;;19.90;16.92;;;20.30;99.90;;;;;;5033070;28;20076;-38
2021/07/17 02:20:35;;;;;;;19.23;15.05;;;20.30;99.90;;;;;;5034237;28;20037;-40
2021/07/17 02:23:01;;;;;;;17.13;14.65;;;20.20;99.90;;;;;;5034221;28;20021;-38
2021/07/17 02:25:27;;;;;;;26.02;17.55;;;20.20;99.90;;;;;;5034207;28;20022;-38
2021/07/17 02:27:52;;;;;;;21.83;16.08;;;20.20;99.90;;;;;;5034142;28;20044;-38
2021/07/17 02:30:19;;;;;;;20.77;16.30;;;20.10;99.90;;;;;;5033939;28;20032;-38
2021/07/17 02:32:44;;;;;;;24.85;15.68;;;20.10;99.90;;;;;;5032752;28;20025;-38
2021/07/17 02:35:11;;;;;;;16.65;13.95;;;20.10;99.90;;;;;;5033974;28;20029;-38
2021/07/17 02:37:37;;;;;;;20.15;14.63;;;20.10;99.90;;;;;;5032342;28;20128;-38
2021/07/17 02:40:05;;;;;;;27.05;16.80;;;20.00;99.90;;;;;;5032823;28;20490;-38
2021/07/17 02:42:30;;;;;;;16.70;14.95;;;20.00;99.90;;;;;;5033032;28;20181;-38
2021/07/17 02:44:56;;;;;;;25.27;17.10;;;19.90;99.90;;;;;;5032789;28;20163;-39
2021/07/17 02:47:21;;;;;;;23.20;17.42;;;20.00;99.90;;;;;;5031635;28;20431;-38
2021/07/17 02:49:47;;;;;;;15.65;13.73;;;20.00;99.90;;;;;;5032849;28;20525;-38
2021/07/17 02:52:12;;;;;;;16.25;12.52;;;20.00;99.90;;;;;;5032789;28;20408;-38
2021/07/17 02:54:38;;;;;;;15.55;13.65;;;20.00;99.90;;;;;;5032815;28;20034;-38
2021/07/17 02:57:04;;;;;;;20.55;15.55;;;20.10;99.90;;;;;;5032750;28;20477;-38
2021/07/17 02:59:29;;;;;;;19.65;14.23;;;20.10;99.90;;;;;;5032646;28;20025;-38
2021/07/17 03:01:55;;;;;;;18.90;14.40;;;20.20;99.90;;;;;;5032647;28;20049;-38
2021/07/17 03:04:20;;;;;;;37.05;18.27;;;20.20;99.90;;;;;;5031342;28;20029;-38
2021/07/17 03:06:46;;;;;;;20.70;15.55;;;20.30;99.90;;;;;;5032631;28;20026;-39
2021/07/17 03:09:11;;;;;;;17.05;14.27;;;20.30;99.90;;;;;;5032519;28;20025;-38
2021/07/17 03:11:37;;;;;;;18.92;14.35;;;20.40;99.90;;;;;;5032544;28;20021;-38
2021/07/17 03:14:03;;;;;;;18.25;13.35;;;20.40;99.90;;;;;;5014614;28;20030;-38
2021/07/17 03:16:31;;;;;;;14.38;11.57;;;20.50;99.90;;;;;;5032443;28;20530;-38
2021/07/17 03:18:57;;;;;;;21.65;14.35;;;20.50;99.90;;;;;;5030995;28;20041;-38
2021/07/17 03:21:22;;;;;;;18.13;14.18;;;20.50;99.90;;;;;;5032385;28;20377;-40
2021/07/17 03:23:48;;;;;;;15.43;13.57;;;20.60;99.90;;;;;;5032407;28;20025;-38
2021/07/17 03:26:14;;;;;;;17.88;13.85;;;20.60;99.90;;;;;;5032338;28;20029;-38
2021/07/17 03:28:39;;;;;;;19.55;14.00;;;20.70;99.90;;;;;;5032176;28;20080;-40
2021/07/17 03:31:05;;;;;;;17.98;14.73;;;20.70;99.90;;;;;;5032311;28;20041;-40
2021/07/17 03:33:30;;;;;;;15.02;13.00;;;20.80;99.90;;;;;;5030988;28;20424;-39
2021/07/17 03:35:59;;;;;;;25.45;15.65;;;20.80;99.90;;;;;;4997469;28;998734;-40
2021/07/17 03:38:25;;;;;;;16.58;12.77;;;20.80;99.90;;;;;;5032991;28;20068;-43
2021/07/17 03:40:51;;;;;;;21.02;12.65;;;20.90;99.90;;;;;;5032852;28;20099;-38
2021/07/17 03:43:17;;;;;;;19.27;12.98;;;20.90;99.90;;;;;;5032737;28;20025;-40
2021/07/17 03:45:43;;;;;;;18.67;15.95;;;20.90;99.90;;;;;;5032864;28;20033;-40
2021/07/17 03:48:08;;;;;;;17.88;13.60;;;20.90;99.90;;;;;;5031031;28;20053;-40
2021/07/17 03:50:34;;;;;;;22.05;13.48;;;20.90;99.90;;;;;;5032400;28;20408;-40
2021/07/17 03:53:00;;;;;;;21.38;15.02;;;21.00;99.90;;;;;;5032729;28;20048;-38
2021/07/17 03:55:25;;;;;;;19.42;13.45;;;21.00;99.90;;;;;;5032816;28;20026;-38
2021/07/17 03:57:51;;;;;;;18.40;15.05;;;21.00;99.90;;;;;;5032696;28;20026;-38
2021/07/17 04:00:17;;;;;;;18.67;14.35;;;21.00;99.90;;;;;;5032623;28;20025;-38
2021/07/17 04:02:44;;;;;;;14.88;13.27;;;21.00;99.90;;;;;;5031371;28;20049;-39
2021/07/17 04:05:12;;;;;;;19.45;15.32;;;21.00;99.90;;;;;;5032601;28;20018;-38
2021/07/17 04:07:38;;;;;;;19.60;13.35;;;21.10;99.90;;;;;;5032612;28;20018;-37
2021/07/17 04:10:06;;;;;;;18.00;14.98;;;21.20;99.90;;;;;;5032605;28;20116;-38
2021/07/17 04:12:32;;;;;;;21.52;15.73;;;21.20;99.90;;;;;;5014790;28;20024;-38
2021/07/17 04:14:57;;;;;;;25.70;14.45;;;21.20;99.90;;;;;;5032549;28;20029;-38
2021/07/17 04:17:23;;;;;;;18.42;13.65;;;21.30;99.90;;;;;;5031260;28;20469;-38
2021/07/17 04:19:49;;;;;;;17.42;13.05;;;21.30;99.90;;;;;;5032415;28;20116;-40
2021/07/17 04:22:14;;;;;;;19.55;13.68;;;21.40;99.90;;;;;;5032558;28;20423;-38
2021/07/17 04:24:40;;;;;;;15.63;12.80;;;21.40;99.90;;;;;;5032493;28;20047;-38
2021/07/17 04:27:06;;;;;;;15.48;13.35;;;21.50;99.90;;;;;;5032309;28;20112;-40
2021/07/17 04:29:31;;;;;;;14.45;12.25;;;21.50;99.90;;;;;;5032700;28;20026;-41
2021/07/17 04:31:57;;;;;;;18.95;13.32;;;21.70;99.90;;;;;;5032129;28;20436;-38
2021/07/17 04:34:23;;;;;;;16.05;13.07;;;21.80;99.90;;;;;;5031820;28;20473;-40
2021/07/17 04:36:49;;;;;;;15.68;12.38;;;21.90;99.90;;;;;;5032206;28;20126;-38
2021/07/17 04:39:15;;;;;;;16.95;12.68;;;22.00;99.90;;;;;;5032258;28;20033;-39
2021/07/17 04:41:40;;;;;;;13.98;11.32;;;22.10;99.90;;;;;;5032243;28;20350;-38
2021/07/17 04:44:06;;;;;;;19.73;14.55;;;22.20;99.90;;;;;;5032265;28;20057;-40
2021/07/17 04:46:31;;;;;;;20.92;15.15;;;22.30;99.90;;;;;;5032241;28;20033;-41
2021/07/17 04:48:57;;;;;;;16.35;13.88;;;22.50;99.90;;;;;;5030968;28;20036;-38
2021/07/17 04:51:22;;;;;;;17.27;13.85;;;22.50;99.90;;;;;;5032214;28;20057;-38
2021/07/17 04:53:48;;;;;;;16.50;13.55;;;22.60;99.90;;;;;;5032287;28;20043;-41
2021/07/17 04:56:13;;;;;;;17.60;12.80;;;22.60;99.90;;;;;;5032067;28;20064;-38
2021/07/17 04:58:39;;;;;;;17.98;13.77;;;22.60;99.90;;;;;;5032203;28;20075;-38
2021/07/17 05:01:04;;;;;;;16.02;13.73;;;22.60;99.90;;;;;;5034223;28;20034;-38
2021/07/17 05:03:30;;;;;;;19.30;14.18;;;22.60;99.90;;;;;;5034451;28;20021;-40
2021/07/17 05:05:55;;;;;;;18.15;15.00;;;22.60;99.90;;;;;;5035703;28;20033;-40
2021/07/17 05:08:21;;;;;;;17.83;14.73;;;22.50;99.90;;;;;;5035604;28;20358;-38
2021/07/17 05:10:48;;;;;;;18.58;14.85;;;22.50;99.90;;;;;;5035439;28;20044;-39
2021/07/17 05:13:15;;;;;;;18.90;14.90;;;22.60;99.90;;;;;;5035504;28;20029;-38
2021/07/17 05:15:41;;;;;;;21.52;15.75;;;22.50;99.90;;;;;;5035452;28;20108;-38
2021/07/17 05:18:07;;;;;;;19.98;15.93;;;22.50;99.90;;;;;;5034140;28;20530;-41
2021/07/17 05:20:33;;;;;;;16.83;14.95;;;22.50;99.90;;;;;;5035385;28;20029;-40
2021/07/17 05:23:01;;;;;;;20.65;14.95;;;22.50;99.90;;;;;;5035281;28;20028;-38
2021/07/17 05:25:26;;;;;;;19.23;16.13;;;22.60;99.90;;;;;;5035191;28;20021;-40
2021/07/17 05:27:52;;;;;;;21.80;17.27;;;22.70;99.90;;;;;;5035255;28;20121;-38
2021/07/17 05:30:18;;;;;;;22.70;18.90;;;22.80;99.90;;;;;;5035159;28;20072;-38
2021/07/17 05:32:43;;;;;;;19.60;16.85;;;22.80;99.90;;;;;;5033891;28;20500;-39
2021/07/17 05:35:10;;;;;;;16.92;13.90;;;22.90;99.90;;;;;;5035054;28;20025;-40
2021/07/17 05:37:35;;;;;;;20.88;17.65;;;23.00;99.90;;;;;;5035023;28;20092;-40
2021/07/17 05:40:01;;;;;;;21.27;15.38;;;23.10;99.90;;;;;;5034898;28;20121;-39
2021/07/17 05:42:26;;;;;;;18.70;16.65;;;23.10;99.90;;;;;;5034981;28;20021;-40
2021/07/17 05:44:52;;;;;;;17.67;15.77;;;23.00;99.90;;;;;;5034984;28;20036;-39
2021/07/17 05:47:17;;;;;;;19.58;15.35;;;23.00;99.90;;;;;;5033776;28;20079;-40
2021/07/17 05:49:43;;;;;;;17.40;15.63;;;23.00;99.90;;;;;;5034892;28;20030;-38
2021/07/17 05:52:09;;;;;;;18.83;15.93;;;22.90;99.90;;;;;;5034766;28;20025;-38
2021/07/17 05:54:34;;;;;;;18.60;14.73;;;22.80;99.90;;;;;;5034700;28;20069;-43
2021/07/17 05:57:00;;;;;;;18.27;16.25;;;22.80;99.90;;;;;;5034694;28;20388;-38
2021/07/17 05:59:26;;;;;;;18.15;15.32;;;22.90;99.90;;;;;;5034510;28;20069;-40
2021/07/17 06:01:51;;;;;;;16.60;14.32;;;23.00;99.90;;;;;;5034612;28;20029;-39
2021/07/17 06:04:17;;;;;;;15.95;14.32;;;23.00;99.90;;;;;;5033276;28;20512;-38
2021/07/17 06:06:42;;;;;;;15.43;13.80;;;23.10;99.90;;;;;;5034518;28;20025;-38
2021/07/17 06:09:08;;;;;;;15.23;13.63;;;23.10;99.90;;;;;;5034372;28;20033;-38
2021/07/17 06:11:34;;;;;;;15.60;14.07;;;23.10;99.90;;;;;;5033473;28;20052;-38
2021/07/17 06:13:59;;;;;;;14.73;13.23;;;23.20;99.90;;;;;;5034348;28;20025;-38
2021/07/17 06:16:25;;;;;;;14.25;12.77;;;23.20;99.90;;;;;;5034278;28;20032;-38
2021/07/17 06:18:50;;;;;;;16.92;14.95;;;23.20;99.90;;;;;;5032968;28;20033;-38
2021/07/17 06:21:16;;;;;;;15.00;12.60;;;23.30;99.90;;;;;;5016380;28;20103;-40
2021/07/17 06:23:41;;;;;;;15.23;12.52;;;23.40;99.90;;;;;;5034279;28;20017;-39
2021/07/17 06:26:07;;;;;;;15.13;13.60;;;23.40;99.90;;;;;;5034021;28;20056;-39
2021/07/17 06:28:32;;;;;;;17.10;11.55;;;23.40;99.90;;;;;;5034140;28;20100;-38
2021/07/17 06:30:58;;;;;;;17.00;12.60;;;23.40;99.90;;;;;;5034088;28;20030;-38
2021/07/17 06:33:23;;;;;;;14.80;13.20;;;23.40;99.90;;;;;;5032634;28;20037;-41
2021/07/17 06:35:49;;;;;;;13.13;11.75;;;23.50;99.90;;;;;;5033821;28;20068;-39
2021/07/17 06:38:14;;;;;;;15.20;12.73;;;23.50;99.90;;;;;;5033876;28;20048;-40
2021/07/17 06:40:40;;;;;;;13.85;12.45;;;23.50;99.90;;;;;;5033830;28;20097;-38
2021/07/17 06:43:06;;;;;;;15.13;12.27;;;23.50;99.90;;;;;;5033894;28;20468;-39
2021/07/17 06:45:31;;;;;;;11.75;10.55;;;23.60;99.90;;;;;;5033723;28;20056;-39
2021/07/17 06:47:57;;;;;;;15.07;12.20;;;23.70;99.90;;;;;;5032476;28;20029;-39
2021/07/17 06:50:23;;;;;;;14.35;11.90;;;23.70;99.90;;;;;;5033659;28;20439;-38
2021/07/17 06:52:48;;;;;;;14.38;12.48;;;23.80;99.90;;;;;;5033739;28;20048;-39
2021/07/17 06:55:14;;;;;;;16.02;11.70;;;23.80;99.90;;;;;;5033513;28;20496;-38
2021/07/17 06:57:41;;;;;;;11.57;10.40;;;23.70;99.90;;;;;;5033779;28;20032;-39
2021/07/17 07:00:11;;;;;;;13.93;11.88;;;23.70;99.90;;;;;;5033406;28;20029;-39
2021/07/17 07:02:38;;;;;;;14.40;11.30;;;23.60;99.90;;;;;;5032198;28;20021;-39
2021/07/17 07:05:06;;;;;;;13.30;11.40;;;23.60;99.90;;;;;;5033464;28;20021;-39
2021/07/17 07:07:31;;;;;;;13.93;11.27;;;23.60;99.90;;;;;;5033338;28;20469;-41
2021/07/17 07:09:57;;;;;;;11.38;10.25;;;23.80;99.90;;;;;;5033324;28;20033;-39
2021/07/17 07:12:22;;;;;;;12.93;11.55;;;24.10;99.90;;;;;;5033291;28;20481;-39
2021/07/17 07:14:48;;;;;;;15.75;10.27;;;25.00;99.90;;;;;;5015583;28;20084;-39
2021/07/17 07:17:13;;;;;;;11.02;8.65;;;26.50;99.90;;;;;;5031962;28;20728;-39
2021/07/17 07:19:39;;;;;;;12.38;9.90;;;28.00;99.90;;;;;;5033089;28;20109;-39
2021/07/17 07:22:04;;;;;;;12.13;9.85;;;29.10;99.90;;;;;;5033228;28;20033;-39
2021/07/17 07:24:31;;;;;;;10.10;8.98;;;29.60;99.90;;;;;;5032815;28;20071;-39
2021/07/17 07:26:57;;;;;;;12.32;9.10;;;30.40;99.90;;;;;;5033088;28;20076;-41
2021/07/17 07:29:24;;;;;;;10.10;8.68;;;31.50;99.90;;;;;;5033026;28;20411;-39
2021/07/17 07:31:51;;;;;;;10.93;9.80;;;32.50;99.90;;;;;;5033092;28;20104;-39
2021/07/17 07:34:17;;;;;;;12.13;9.68;;;32.70;99.90;;;;;;5031833;28;20033;-40
2021/07/17 07:36:42;;;;;;;10.23;9.15;;;32.90;99.90;;;;;;5032795;28;20136;-39
2021/07/17 07:39:08;;;;;;;9.32;8.43;;;33.70;99.90;;;;;;5032740;28;20488;-39
2021/07/17 07:41:34;;;;;;;10.02;8.88;;;34.20;99.90;;;;;;5032901;28;20033;-40
2021/07/17 07:43:59;;;;;;;11.35;9.27;;;34.30;99.90;;;;;;5032827;28;20380;-40
2021/07/17 07:46:25;;;;;;;11.00;9.80;;;34.60;99.90;;;;;;5032773;28;20137;-40
2021/07/17 07:48:50;;;;;;;9.65;8.38;;;34.50;99.90;;;;;;5031572;28;20018;-40
2021/07/17 07:51:16;;;;;;;8.88;7.97;;;34.20;99.90;;;;;;5032795;28;20424;-42
2021/07/17 07:53:41;;;;;;;9.82;8.73;;;34.80;99.90;;;;;;5032677;28;20033;-39
2021/07/17 07:56:07;;;;;;;10.98;9.18;;;35.00;99.90;;;;;;5032799;28;20029;-40
2021/07/17 07:58:32;;;;;;;10.32;9.23;;;34.20;99.90;;;;;;5032713;28;20037;-40
2021/07/17 08:00:58;;;;;;;10.25;9.25;;;34.30;99.90;;;;;;5032716;28;20083;-39
2021/07/17 08:03:23;;;;;;;13.70;10.05;;;33.90;99.90;;;;;;5031441;28;20068;-39
2021/07/17 08:05:49;;;;;;;10.68;9.30;;;32.90;99.90;;;;;;5032682;28;20439;-39
2021/07/17 08:08:15;;;;;;;10.85;9.85;;;31.80;99.90;;;;;;5032614;28;20021;-42
2021/07/17 08:10:40;;;;;;;9.82;8.82;;;31.40;99.90;;;;;;5032622;28;20152;-39
2021/07/17 08:13:06;;;;;;;10.90;9.90;;;31.40;99.90;;;;;;5032663;28;20088;-39
2021/07/17 08:15:32;;;;;;;14.52;11.45;;;31.10;99.90;;;;;;5032586;28;20036;-39
2021/07/17 08:17:58;;;;;;;9.82;8.85;;;30.70;99.90;;;;;;5031523;28;20033;-39
2021/07/17 08:20:24;;;;;;;12.57;9.57;;;30.30;99.90;;;;;;5032453;28;20026;-39
2021/07/17 08:22:50;;;;;;;9.68;8.70;;;30.10;99.90;;;;;;5032390;28;20021;-39
2021/07/17 08:25:16;;;;;;;10.15;9.18;;;30.50;99.90;;;;;;5032552;28;20037;-40
2021/07/17 08:27:41;;;;;;;12.88;10.32;;;30.40;99.90;;;;;;5032478;28;20468;-39
2021/07/17 08:30:09;;;;;;;11.40;9.48;;;30.00;99.90;;;;;;5032442;28;20021;-39
2021/07/17 08:32:35;;;;;;;11.60;9.35;;;29.40;99.90;;;;;;5031075;28;20026;-39
2021/07/17 08:35:00;;;;;;;10.85;9.70;;;29.00;99.90;;;;;;5033091;28;20112;-38
2021/07/17 08:37:26;;;;;;;10.38;9.18;;;28.60;99.90;;;;;;5035882;28;20060;-39
2021/07/17 08:39:51;;;;;;;10.85;9.68;;;28.30;99.90;;;;;;5036152;28;20029;-40
2021/07/17 08:42:20;;;;;;;12.25;9.80;;;28.20;99.90;;;;;;5036081;28;20053;-39
2021/07/17 08:44:48;;;;;;;10.05;9.05;;;28.10;99.90;;;;;;5036072;28;20049;-39
2021/07/17 08:47:15;;;;;;;10.68;8.77;;;28.10;99.90;;;;;;5034775;28;20562;-39
2021/07/17 08:49:43;;;;;;;10.50;9.55;;;28.50;99.90;;;;;;5035949;28;20029;-39
2021/07/17 08:52:10;;;;;;;10.90;9.52;;;28.70;99.90;;;;;;5035928;28;20396;-39
2021/07/17 08:54:40;;;;;;;10.32;9.07;;;28.80;99.90;;;;;;5035861;28;20041;-39
2021/07/17 08:57:10;;;;;;;10.38;9.10;;;29.20;99.90;;;;;;5035899;28;20029;-39
2021/07/17 08:59:36;;;;;;;11.65;9.15;;;29.80;99.90;;;;;;5035650;28;20025;-39
2021/07/17 09:02:02;;;;;;;11.85;9.63;;;30.60;99.90;;;;;;5034509;28;20353;-40
2021/07/17 09:04:27;;;;;;;10.93;9.75;;;30.70;99.90;;;;;;5035613;28;20053;-40
2021/07/17 09:06:53;;;;;;;10.13;8.93;;;30.30;99.90;;;;;;5035618;28;20043;-40
2021/07/17 09:09:34;;;;;;;10.05;8.50;;;29.80;99.90;;;;;;5035852;28;20483;-39
2021/07/17 09:11:59;;;;;;;9.95;8.35;;;29.40;99.90;;;;;;5035550;28;20028;-39
2021/07/17 09:14:37;;;;;;;11.80;8.90;;;29.00;99.90;;;;;;5035573;28;20022;-40
2021/07/17 09:17:03;;;;;;;9.38;8.38;;;28.70;99.90;;;;;;5034037;28;20465;-39
2021/07/17 09:19:28;;;;;;;10.23;9.23;;;28.60;99.90;;;;;;5035364;28;20108;-41
2021/07/17 09:21:55;;;;;;;11.30;9.45;;;28.80;99.90;;;;;;5035387;28;20045;-42
2021/07/17 09:24:21;;;;;;;9.77;8.88;;;30.20;99.90;;;;;;5035363;28;20079;-39
2021/07/17 09:26:59;;;;;;;10.98;9.27;;;31.30;99.90;;;;;;5035334;28;20029;-39
2021/07/17 09:29:43;;;;;;;10.93;9.68;;;31.90;99.90;;;;;;5035190;28;20025;-42
2021/07/17 09:32:15;;;;;;;15.38;10.23;;;31.70;99.90;;;;;;5033958;28;20534;-43
2021/07/17 09:34:40;;;;;;;11.80;10.38;;;31.10;99.90;;;;;;5035171;28;20037;-45
2021/07/17 09:37:12;;;;;;;12.13;10.85;;;30.50;99.90;;;;;;5035032;28;20064;-40
2021/07/17 09:39:40;;;;;;;10.48;9.38;;;30.00;99.90;;;;;;5034987;28;20041;-39
2021/07/17 09:42:11;;;;;;;12.23;10.35;;;30.30;99.90;;;;;;5034961;28;20026;-40
2021/07/17 09:44:37;;;;;;;10.38;9.35;;;30.60;99.90;;;;;;5034969;28;20105;-40
2021/07/17 09:47:18;;;;;;;11.50;10.30;;;30.70;99.90;;;;;;5033577;28;20061;-40
2021/07/17 09:49:44;;;;;;;13.25;10.30;;;30.20;99.90;;;;;;5034871;28;20044;-39
2021/07/17 09:52:12;;;;;;;10.43;9.05;;;29.50;99.90;;;;;;5034867;28;20037;-39
2021/07/17 09:54:39;;;;;;;10.40;9.43;;;29.40;99.90;;;;;;5034616;28;20055;-39
2021/07/17 09:57:05;;;;;;;11.77;9.32;;;29.30;99.90;;;;;;5034795;28;20152;-39
2021/07/17 09:59:30;;;;;;;10.90;9.52;;;29.30;99.90;;;;;;5034557;28;20116;-42
2021/07/17 10:01:56;;;;;;;13.38;9.55;;;29.40;99.90;;;;;;5033376;28;20028;-42
2021/07/17 10:04:21;;;;;;;10.95;9.95;;;29.80;99.90;;;;;;5034644;28;20030;-41
2021/07/17 10:06:50;;;;;;;10.88;9.38;;;30.00;99.90;;;;;;5034533;28;20021;-39
2021/07/17 10:09:15;;;;;;;11.25;10.15;;;30.00;99.90;;;;;;5034465;28;20021;-40
2021/07/17 10:11:43;;;;;;;13.13;9.68;;;30.10;99.90;;;;;;5034416;28;20040;-44
2021/07/17 10:14:23;;;;;;;10.43;9.32;;;30.00;99.90;;;;;;5034459;28;20381;-39
2021/07/17 10:16:53;;;;;;;10.68;9.40;;;29.90;99.90;;;;;;5033633;28;20477;-42
2021/07/17 10:19:19;;;;;;;10.32;9.27;;;29.90;99.90;;;;;;5034259;28;20075;-41
2021/07/17 10:21:45;;;;;;;8.95;8.15;;;30.00;99.90;;;;;;5034178;28;20029;-40
2021/07/17 10:24:12;;;;;;;12.50;9.68;;;30.40;99.90;;;;;;5034210;28;20053;-39
2021/07/17 10:26:39;;;;;;;13.35;10.77;;;30.60;99.90;;;;;;5034017;28;20021;-41
2021/07/17 10:29:07;;;;;;;10.07;9.07;;;30.40;99.90;;;;;;5034117;28;20021;-40
2021/07/17 10:31:34;;;;;;;10.10;9.20;;;30.30;99.90;;;;;;5033980;28;20033;-46
2021/07/17 10:33:59;;;;;;;9.55;8.52;;;30.50;99.90;;;;;;5032770;28;20026;-39
2021/07/17 10:36:25;;;;;;;12.40;10.52;;;30.70;99.90;;;;;;5033703;28;20097;-42
2021/07/17 10:38:58;;;;;;;12.25;10.95;;;30.50;99.90;;;;;;5033900;28;20030;-42
2021/07/17 10:41:25;;;;;;;11.27;10.07;;;30.20;99.90;;;;;;5033825;28;20026;-42
2021/07/17 10:43:54;;;;;;;15.10;10.00;;;30.00;99.90;;;;;;5033787;28;20544;-41
2021/07/17 10:46:31;;;;;;;13.32;9.88;;;30.10;99.90;;;;;;5033790;28;20083;-41
2021/07/17 10:48:58;;;;;;;11.90;8.77;;;30.20;99.90;;;;;;5032352;28;20112;-38
2021/07/17 10:51:23;;;;;;;10.82;9.70;;;30.40;99.90;;;;;;5033786;28;20025;-43
2021/07/17 10:53:53;;;;;;;11.48;10.32;;;30.50;99.90;;;;;;5033864;28;20507;-41
2021/07/17 10:56:28;;;;;;;12.63;9.70;;;30.30;99.90;;;;;;5033643;28;20499;-44
2021/07/17 10:58:56;;;;;;;11.10;10.00;;;29.90;99.90;;;;;;5033114;28;20079;-40
2021/07/17 11:01:23;;;;;;;10.98;9.90;;;29.90;99.90;;;;;;5033346;28;20033;-40
2021/07/17 11:03:49;;;;;;;10.23;9.07;;;29.80;99.90;;;;;;5032163;28;20064;-42
2021/07/17 11:06:28;;;;;;;10.52;9.35;;;29.90;99.90;;;;;;5033438;28;20044;-45
2021/07/17 11:08:56;;;;;;;13.25;10.05;;;30.10;99.90;;;;;;5033341;28;20322;-39
2021/07/17 11:11:27;;;;;;;10.57;9.57;;;30.10;99.90;;;;;;5033334;28;20071;-40
2021/07/17 11:13:53;;;;;;;10.35;9.35;;;30.20;99.90;;;;;;5033163;28;20040;-42
2021/07/17 11:16:39;;;;;;;11.48;9.18;;;30.20;99.90;;;;;;5033311;28;20030;-40
2021/07/17 11:19:25;;;;;;;12.05;9.82;;;30.10;99.90;;;;;;5032013;28;20533;-41
2021/07/17 11:21:51;;;;;;;10.15;9.25;;;29.90;99.90;;;;;;5033128;28;20069;-40
2021/07/17 11:24:17;;;;;;;10.13;8.15;;;30.00;99.90;;;;;;5033091;28;20025;-41
2021/07/17 11:26:43;;;;;;;9.63;8.60;;;30.20;99.90;;;;;;5033119;28;20040;-40
2021/07/17 11:29:10;;;;;;;11.82;9.05;;;30.50;99.90;;;;;;5033144;28;20369;-43
2021/07/17 11:31:43;;;;;;;9.23;8.32;;;30.50;99.90;;;;;;5033088;28;20480;-43
2021/07/17 11:34:14;;;;;;;10.10;8.82;;;30.50;99.90;;;;;;5031752;28;20029;-41
2021/07/17 11:36:51;;;;;;;9.88;8.88;;;30.50;99.90;;;;;;5032863;28;20113;-44
2021/07/17 11:39:19;;;;;;;10.02;9.13;;;30.50;99.90;;;;;;5032861;28;20519;-39
2021/07/17 11:41:45;;;;;;;10.95;8.98;;;30.50;99.90;;;;;;5032906;28;20025;-42
2021/07/17 11:44:10;;;;;;;10.52;9.43;;;30.60;99.90;;;;;;5032924;28;20033;-40
2021/07/17 11:46:36;;;;;;;14.43;8.98;;;30.70;99.90;;;;;;5032871;28;20068;-42
2021/07/17 11:49:06;;;;;;;9.75;8.50;;;30.80;98.70;;;;;;5031529;28;20036;-41
2021/07/17 11:51:33;;;;;;;9.77;8.80;;;30.80;98.80;;;;;;5032711;28;20453;-41
2021/07/17 11:54:00;;;;;;;12.13;8.93;;;30.70;98.40;;;;;;5032723;28;20029;-40
2021/07/17 11:56:27;;;;;;;11.40;9.35;;;30.40;99.70;;;;;;5032824;28;20561;-42
2021/07/17 11:59:12;;;;;;;9.95;8.95;;;30.20;99.90;;;;;;5015249;28;20031;-41
2021/07/17 12:01:38;;;;;;;10.27;9.25;;;29.80;99.90;;;;;;5032765;28;20032;-41
2021/07/17 12:04:03;;;;;;;9.82;8.88;;;29.60;99.90;;;;;;5031265;28;20034;-41
2021/07/17 12:06:28;;;;;;;10.27;9.07;;;29.60;99.90;;;;;;5032610;28;20025;-41
2021/07/17 12:08:54;;;;;;;8.45;7.72;;;29.80;99.90;;;;;;5032548;28;20037;-44
2021/07/17 12:11:20;;;;;;;9.38;8.23;;;29.80;99.90;;;;;;5035515;28;20372;-42
2021/07/17 12:13:46;;;;;;;12.25;8.30;;;30.00;99.90;;;;;;5036523;28;20028;-41
2021/07/17 12:16:22;;;;;;;10.75;8.65;;;30.00;99.90;;;;;;5018918;28;20025;-39
2021/07/17 12:18:55;;;;;;;9.48;7.88;;;30.00;96.70;;;;;;5035219;28;20026;-43
2021/07/17 12:21:21;;;;;;;8.73;7.93;;;30.10;98.20;;;;;;5036476;28;20025;-43
2021/07/17 12:23:57;;;;;;;9.25;8.35;;;30.20;98.30;;;;;;5036487;28;20021;-46
2021/07/17 12:26:23;;;;;;;9.98;8.00;;;30.20;96.80;;;;;;5036402;28;20075;-39
2021/07/17 12:28:48;;;;;;;9.77;8.77;;;30.20;95.40;;;;;;5036337;28;20022;-42